Latest Weather Observations for Terrey Hills

IDN60801

Issued at 9:42 pm EDT Saturday 23 February 2019 (issued every 10 minutes, with the page automatically refreshed every 10 minutes)

About weather observations | Map of weather stations | Latest weather observations for NSW | Other Formats
Station Details ID: 066059 Name: TERREY HILLS AWS Lat: -33.69 Lon: 151.23 Height: 199.0 m
Data from the previous 72 hours. | See also: Recent months at Terrey Hills
Date/Time
EDT
Temp
°C
App
Temp
°C
Dew
Point
°C
Rel
Hum
%
Delta-T
°C
Wind Press
QNH
hPa
Press
MSL
hPa
Rain since
9am
mm
Dir  Spd
km/h
Gust
km/h
Spd
kts
Gust
kts
23/09:30pm 17.4 17.3 16.9 97 0.3 SSW 13 24 7 13 - - 13.0
23/09:00pm 17.4 17.4 17.1 98 0.2 SSW 13 24 7 13 - - 13.0
23/08:30pm 17.4 17.0 17.1 98 0.2 SSW 15 30 8 16 - - 13.0
23/08:00pm 17.6 17.6 17.3 98 0.2 S 13 22 7 12 - - 12.8
23/07:30pm 18.0 17.8 17.7 98 0.2 S 15 35 8 19 - - 11.8
23/07:00pm 17.8 17.5 17.3 97 0.3 S 15 20 8 11 - - 10.6
23/06:30pm 17.8 16.8 17.5 98 0.2 S 19 35 10 19 - - 10.6
23/06:00pm 17.5 17.9 17.3 99 0.1 S 11 26 6 14 - - 8.4
23/05:30pm 17.6 16.4 17.1 97 0.3 S 19 32 10 17 - - 4.6
23/05:00pm 18.2 17.9 17.4 95 0.5 S 15 32 8 17 - - 2.8
23/04:30pm 18.1 17.4 17.3 95 0.5 S 17 30 9 16 - - 2.6
23/04:00pm 17.8 18.1 17.0 95 0.5 S 11 22 6 12 - - 2.6
23/03:30pm 17.9 17.0 16.8 93 0.7 S 17 28 9 15 - - 2.2
23/03:00pm 19.5 20.1 17.8 90 1.1 S 11 24 6 13 - - 1.4
23/02:30pm 19.1 18.3 17.1 88 1.2 S 17 32 9 17 - - 1.4
23/02:00pm 18.4 17.8 17.6 95 0.5 SSW 17 28 9 15 - - 1.4
23/01:30pm 18.7 18.8 17.5 93 0.7 SSW 13 24 7 13 - - 0.8
23/01:00pm 19.4 19.5 17.4 88 1.2 SSW 13 22 7 12 - - 0.0
23/12:30pm 19.8 19.7 17.0 84 1.7 SSW 13 22 7 12 - - 0.0
23/12:00pm 20.2 20.0 17.6 85 1.6 SSW 15 24 8 13 - - 0.0
23/11:30am 19.5 19.5 18.2 92 0.8 SW 15 26 8 14 - - 0.0
23/11:00am 18.2 16.8 16.5 90 1.0 SSW 19 32 10 17 - - 0.0
23/10:30am 18.4 17.4 16.7 90 1.0 SSW 17 28 9 15 - - 0.0
23/10:00am 18.1 17.8 16.4 90 1.0 SSW 13 22 7 12 - - 0.0
23/09:30am 18.8 18.4 16.2 85 1.6 SSW 13 33 7 18 - - 0.0
23/09:00am 19.2 19.0 16.8 86 1.5 SSW 13 24 7 13 - - 6.8
23/08:30am 18.1 17.3 16.1 88 1.2 SSW 15 26 8 14 - - 6.8
23/08:00am 16.7 15.9 15.2 91 0.9 SSW 13 20 7 11 - - 6.8
23/07:30am 16.4 15.9 14.9 91 0.9 SW 11 19 6 10 - - 6.8
23/07:00am 16.2 15.7 14.9 92 0.8 SW 11 20 6 11 - - 6.8
23/06:30am 16.4 16.4 15.1 92 0.8 SW 9 20 5 11 - - 6.8
23/06:00am 16.5 16.6 15.4 93 0.6 SW 9 20 5 11 - - 6.8
23/05:30am 16.8 17.0 15.7 93 0.7 SW 9 17 5 9 - - 6.8
23/05:00am 17.0 16.8 15.7 92 0.8 SW 11 22 6 12 - - 6.8
23/04:30am 16.7 16.1 15.7 94 0.6 SW 13 24 7 13 - - 6.8
23/04:00am 16.9 16.5 16.1 95 0.5 SSW 13 26 7 14 - - 6.8
23/03:30am 16.8 17.2 16.2 96 0.4 SW 9 17 5 9 - - 6.6
23/03:00am 16.9 17.0 16.4 97 0.3 SW 11 20 6 11 - - 6.4
23/02:30am 16.9 17.3 16.4 97 0.3 SW 9 15 5 8 - - 5.6
23/02:00am 17.0 17.7 16.2 95 0.5 SW 7 17 4 9 - - 5.0
23/01:30am 17.1 17.0 16.1 94 0.6 SW 11 20 6 11 - - 4.8
23/01:00am 17.2 17.6 16.2 94 0.6 SW 9 22 5 12 - - 4.4
23/12:30am 17.3 17.7 16.3 94 0.6 SW 9 17 5 9 - - 4.4
23/12:00am 17.3 17.4 16.5 95 0.5 SW 11 19 6 10 - - 4.4
 
Date/Time
EDT
Temp
°C
App
Temp
°C
Dew
Point
°C
Rel
Hum
%
Delta-T
°C
Wind Press
QNH
hPa
Press
MSL
hPa
Rain since
9am
mm
Dir  Spd
km/h
Gust
km/h
Spd
kts
Gust
kts
22/11:30pm 17.4 17.5 16.4 94 0.6 SW 11 17 6 9 - - 4.2
22/11:00pm 17.4 17.8 16.4 94 0.6 SW 9 15 5 8 - - 4.2
22/10:30pm 17.6 18.1 16.6 94 0.6 SW 9 15 5 8 - - 4.2
22/10:00pm 17.8 18.0 16.7 93 0.7 SSW 11 19 6 10 - - 4.0
22/09:30pm 17.5 17.6 16.5 94 0.6 SW 11 19 6 10 - - 4.0
22/09:00pm 17.6 17.4 16.6 94 0.6 SSW 13 20 7 11 - - 4.0
22/08:30pm 17.4 17.2 16.6 95 0.5 SSW 13 20 7 11 - - 4.0
22/08:00pm 17.4 17.2 16.6 95 0.5 SSW 13 22 7 12 - - 4.0
22/07:30pm 17.4 17.3 16.9 97 0.3 SSW 13 20 7 11 - - 4.0
22/07:00pm 17.6 17.6 17.1 97 0.3 SSW 13 22 7 12 - - 4.0
22/06:30pm 18.0 18.4 17.2 95 0.5 SSW 11 19 6 10 - - 3.8
22/06:00pm 19.0 19.5 17.5 91 0.9 SSW 11 20 6 11 - - 3.8
22/05:30pm 18.7 19.4 18.0 96 0.4 S 11 20 6 11 - - 3.8
22/05:00pm 18.3 19.3 17.7 96 0.4 S 9 19 5 10 - - 3.8
22/04:30pm 18.0 17.5 17.0 94 0.6 S 15 28 8 15 - - 3.6
22/04:00pm 18.8 18.6 17.6 93 0.7 S 15 28 8 15 - - 3.4
22/03:30pm 18.4 18.8 18.1 98 0.2 SSW 13 26 7 14 - - 3.4
22/03:00pm 17.6 19.0 17.3 98 0.2 ESE 6 9 3 5 - - 3.2
22/02:30pm 17.6 18.7 17.1 97 0.3 S 7 15 4 8 - - 1.6
22/02:00pm 17.7 16.9 17.1 96 0.4 SSW 17 26 9 14 - - 0.4
22/01:30pm 18.0 17.8 16.7 92 0.8 S 13 19 7 10 - - 0.2
22/01:00pm 20.8 18.9 15.8 73 3.0 S 20 37 11 20 - - 0.0
22/12:30pm 20.8 19.6 17.0 79 2.3 SSW 19 32 10 17 - - 0.0
22/12:00pm 19.6 18.4 16.1 80 2.1 S 17 28 9 15 - - 0.0
22/11:30am 19.5 18.8 16.5 83 1.8 SSW 15 28 8 15 - - 0.0
22/11:00am 19.8 19.5 16.4 81 2.1 SSW 13 26 7 14 - - 0.0
22/10:30am 19.7 19.9 17.7 88 1.2 SSW 13 24 7 13 - - 0.0
22/10:00am 18.2 18.1 16.9 92 0.8 SSW 13 24 7 13 - - 0.0
22/09:30am 17.9 17.8 16.9 94 0.6 SW 13 19 7 10 - - 0.0
22/09:00am 17.6 17.9 17.1 97 0.3 SW 11 19 6 10 - - 7.6
22/08:30am 17.3 17.2 17.0 98 0.2 SW 13 22 7 12 - - 7.6
22/08:00am 17.2 17.1 17.0 99 0.1 SSW 13 20 7 11 - - 7.4
22/07:30am 17.2 17.1 17.0 99 0.1 SSW 13 20 7 11 - - 7.4
22/07:00am 17.3 18.0 17.0 98 0.2 SW 9 17 5 9 - - 7.4
22/06:30am 17.8 17.8 17.3 97 0.3 SSW 13 19 7 10 - - 7.2
22/06:00am 17.9 18.4 17.4 97 0.3 SSW 11 19 6 10 - - 6.4
22/05:30am 18.6 19.7 17.1 91 0.9 S 7 13 4 7 - - 6.4
22/05:00am 18.4 19.6 17.4 94 0.6 S 7 13 4 7 - - 6.4
22/04:30am 18.5 19.6 17.9 96 0.4 S 9 17 5 9 - - 6.4
22/04:00am 18.4 19.5 17.9 97 0.3 SSW 9 15 5 8 - - 5.8
22/03:30am 18.6 20.2 17.9 96 0.4 SW 6 11 3 6 - - 5.8
22/03:00am 18.8 20.3 18.0 95 0.5 SW 7 9 4 5 - - 5.8
22/02:30am 19.3 21.1 18.3 94 0.6 SSE 6 11 3 6 - - 5.8
22/02:00am 19.3 21.0 18.5 95 0.5 SE 7 13 4 7 - - 5.8
22/01:30am 19.2 21.1 18.5 96 0.4 SSE 6 13 3 7 - - 5.8
22/01:00am 19.2 21.6 18.7 97 0.3 S 4 9 2 5 - - 5.8
22/12:30am 19.1 20.8 18.6 97 0.3 S 7 13 4 7 - - 5.6
22/12:00am 18.8 20.2 18.6 99 0.1 SE 9 28 5 15 - - 5.6
 
Date/Time
EDT
Temp
°C
App
Temp
°C
Dew
Point
°C
Rel
Hum
%
Delta-T
°C
Wind Press
QNH
hPa
Press
MSL
hPa
Rain since
9am
mm
Dir  Spd
km/h
Gust
km/h
Spd
kts
Gust
kts
21/11:30pm 18.5 20.3 18.3 99 0.1 SSW 6 11 3 6 - - 4.8
21/11:00pm 18.4 20.2 18.2 99 0.1 WSW 6 9 3 5 - - 3.4
21/10:30pm 18.6 20.4 18.4 99 0.1 S 6 15 3 8 - - 3.2
21/10:00pm 18.5 19.3 18.2 98 0.2 SSW 11 19 6 10 - - 0.8
21/09:30pm 18.7 20.5 18.4 98 0.2 S 6 13 3 7 - - 0.8
21/09:00pm 18.6 20.3 18.1 97 0.3 SSW 6 15 3 8 - - 0.6
21/08:30pm 18.8 20.5 18.5 98 0.2 SSW 7 13 4 7 - - 0.6
21/08:00pm 18.9 20.6 18.6 98 0.2 S 7 15 4 8 - - 0.6
21/07:30pm 18.9 20.7 18.7 99 0.1 S 7 13 4 7 - - 0.6
21/07:00pm 19.1 20.6 18.8 98 0.2 SSE 9 17 5 9 - - 0.0
21/06:30pm 19.1 20.9 18.8 98 0.2 SSW 7 13 4 7 - - 0.0
21/06:00pm 19.3 21.1 18.8 97 0.3 S 7 13 4 7 - - 0.0
21/05:30pm 20.0 21.4 18.7 92 0.8 S 9 19 5 10 - - 0.0
21/05:00pm 20.5 22.2 18.6 89 1.2 S 7 19 4 10 - - 0.0
21/04:30pm 21.3 23.3 19.2 88 1.3 S 7 15 4 8 - - 0.0
21/04:00pm 20.4 22.0 18.3 88 1.3 S 7 15 4 8 - - 0.0
21/03:30pm 20.6 21.4 18.2 86 1.5 S 11 22 6 12 - - 0.0
21/03:00pm 21.7 23.0 18.5 82 2.0 SSE 9 19 5 10 - - 0.0
21/02:30pm 21.9 23.7 19.5 86 1.5 SSE 9 15 5 8 - - 0.0
21/02:00pm 21.1 22.9 19.6 91 1.0 SSE 9 15 5 8 - - 0.0
21/01:30pm 20.0 21.5 19.0 94 0.6 S 9 19 5 10 - - 0.0
21/01:00pm 19.5 21.3 18.7 95 0.5 S 7 15 4 8 - - 0.0
21/12:30pm 19.9 20.9 18.7 93 0.8 S 11 19 6 10 - - 0.0
21/12:00pm 20.3 22.1 18.8 91 0.9 S 7 17 4 9 - - 0.0
21/11:30am 20.6 22.5 18.9 90 1.1 S 7 15 4 8 - - 0.0
21/11:00am 20.7 22.2 18.8 89 1.2 S 9 19 5 10 - - 0.0
21/10:30am 20.6 22.1 18.9 90 1.1 S 9 15 5 8 - - 0.0
21/10:00am 21.2 23.4 19.3 89 1.2 S 6 9 3 5 - - 0.0
21/09:30am 21.3 23.8 19.9 92 0.9 S 6 7 3 4 - - 0.0
21/09:00am 20.5 22.6 19.3 93 0.8 S 7 15 4 8 - - 7.0
21/08:30am 20.1 21.7 19.1 94 0.6 S 9 15 5 8 - - 7.0
21/08:00am 20.2 22.1 18.9 92 0.8 S 7 13 4 7 - - 7.0
21/07:30am 20.1 21.7 18.2 89 1.2 SSW 7 13 4 7 - - 7.0
21/07:00am 20.3 21.1 17.3 83 1.8 SE 9 17 5 9 - - 7.0
21/06:30am 20.2 20.8 17.6 85 1.6 ESE 11 15 6 8 - - 7.0
21/06:00am 20.1 20.6 18.4 90 1.1 SE 13 19 7 10 - - 7.0
21/05:30am 19.8 21.5 19.3 97 0.3 SE 9 13 5 7 - - 7.0
21/05:00am 19.5 20.4 19.2 98 0.2 ESE 13 20 7 11 - - 7.0
21/04:30am 19.5 20.4 19.3 99 0.1 ESE 13 24 7 13 - - 6.8
21/04:00am 19.7 20.6 19.2 97 0.3 ESE 13 19 7 10 - - 6.8
21/03:30am 19.8 20.5 19.6 99 0.1 ESE 15 26 8 14 - - 6.8
21/03:00am 19.9 20.6 19.6 98 0.2 ESE 15 30 8 16 - - 6.8
21/02:30am 19.7 20.0 19.5 99 0.1 ESE 17 26 9 14 - - 6.6
21/02:00am 20.1 20.9 19.8 98 0.2 ESE 15 26 8 14 - - 6.2
21/01:30am 20.3 21.9 20.0 98 0.2 SE 11 19 6 10 - - 6.2
21/01:00am 20.2 21.8 20.0 99 0.1 ESE 11 20 6 11 - - 6.2
21/12:30am 20.3 21.2 20.1 99 0.1 ESE 15 28 8 15 - - 6.2
21/12:00am 20.4 22.1 20.2 99 0.1 SE 11 19 6 10 - - 6.2
 
Date/Time
EDT
Temp
°C
App
Temp
°C
Dew
Point
°C
Rel
Hum
%
Delta-T
°C
Wind Press
QNH
hPa
Press
MSL
hPa
Rain since
9am
mm
Dir  Spd
km/h
Gust
km/h
Spd
kts
Gust
kts
20/11:30pm 20.3 21.5 20.0 98 0.2 SE 13 20 7 11 - - 6.2
20/11:00pm 20.2 21.8 19.9 98 0.2 SE 11 20 6 11 - - 6.2
20/10:30pm 20.1 21.7 19.9 99 0.1 SE 11 19 6 10 - - 6.2
20/10:00pm 20.2 21.4 20.0 99 0.1 ESE 13 22 7 12 - - 6.2

Other formats

Comma delimited format used in spreadsheet applications
http://www.bom.gov.au/fwo/IDN60801/IDN60801.94759.axf

JavaScript Object Notation format (JSON) in row-major order
http://www.bom.gov.au/fwo/IDN60801/IDN60801.94759.json

Data quality

Most of these data are generated automatically and are frequently updated. Quality checks on data are not normally performed. It is possible for incorrect values to appear. Refer to information at About Latest Weather Observations and please check the disclaimer before using these data.